Time;durP1;ratioP1;P1;durP2;ratioP2;P2;SDS_P1;SDS_P2;PMS_P1;PMS_P2;Temp;Humidity;BMP_temperature;BMP_pressure;BME280_temperature;BME280_humidity;BME280_pressure;Samples;Min_cycle;Max_cycle;Signal;HPM_P1;HPM_P2
2021/05/22 00:01:23;;;;;;;;;;;12.10;99.90;;;;;;5075111;28;19971;-81
2021/05/22 00:03:50;;;;;;;;;;;11.90;99.90;;;;;;5070626;28;19915;-81
2021/05/22 00:06:15;;;;;;;;;;;11.90;99.90;;;;;;5090364;28;19912;-81
2021/05/22 00:08:41;;;;;;;;;;;11.90;99.90;;;;;;5077099;28;19912;-82
2021/05/22 00:11:07;;;;;;;;;;;12.00;99.90;;;;;;5051395;28;19908;-82
2021/05/22 00:13:32;;;;;;;;;;;12.00;99.90;;;;;;5051630;28;19908;-82
2021/05/22 00:15:58;;;;;;;;;;;12.00;99.90;;;;;;5085952;28;19955;-82
2021/05/22 00:18:24;;;;;;;;;;;12.00;99.90;;;;;;5091342;28;19931;-82
2021/05/22 00:20:49;;;;;;;;;;;12.10;99.90;;;;;;5091611;28;19908;-82
2021/05/22 00:23:15;;;;;;;;;;;12.10;99.90;;;;;;5076518;28;19915;-82
2021/05/22 00:25:41;;;;;;;;;;;12.20;99.90;;;;;;5089942;28;20383;-82
2021/05/22 00:28:07;;;;;;;;;;;12.20;99.90;;;;;;5088879;28;19911;-82
2021/05/22 00:30:32;;;;;;;;;;;12.20;99.90;;;;;;5066160;28;19955;-82
2021/05/22 00:32:58;;;;;;;;;;;12.20;99.90;;;;;;5069678;28;20007;-82
2021/05/22 00:35:24;;;;;;;;;;;12.20;99.90;;;;;;5050715;28;20319;-81
2021/05/22 00:37:49;;;;;;;;;;;12.20;99.90;;;;;;5050617;28;19911;-82
2021/05/22 00:40:15;;;;;;;;;;;12.20;99.90;;;;;;5082617;28;19916;-81
2021/05/22 00:42:43;;;;;;;;;;;12.30;99.90;;;;;;5069227;28;19908;-82
2021/05/22 00:45:13;;;;;;;;;;;12.30;99.90;;;;;;5075754;28;19919;-81
2021/05/22 00:47:40;;;;;;;;;;;12.30;99.90;;;;;;5080014;28;19956;-81
2021/05/22 00:50:08;;;;;;;;;;;12.30;99.90;;;;;;5088221;28;19908;-81
2021/05/22 00:52:33;;;;;;;;;;;12.20;99.90;;;;;;5089083;28;19912;-82
2021/05/22 00:54:59;;;;;;;;;;;12.30;99.90;;;;;;5079618;28;20640;-82
2021/05/22 00:57:25;;;;;;;;;;;12.30;99.90;;;;;;5054611;28;19904;-82
2021/05/22 00:59:51;;;;;;;;;;;12.30;99.90;;;;;;5049148;28;19909;-82
2021/05/22 01:02:21;;;;;;;;;;;12.20;99.90;;;;;;5060140;28;19916;-82
2021/05/22 01:04:46;;;;;;;;;;;12.30;99.90;;;;;;5070525;28;20445;-82
2021/05/22 01:07:12;;;;;;;;;;;12.30;99.90;;;;;;5068684;28;19908;-82
2021/05/22 01:09:39;;;;;;;;;;;12.30;99.90;;;;;;5055373;28;19912;-82
2021/05/22 01:12:06;;;;;;;;;;;12.40;99.90;;;;;;5062597;28;19912;-81
2021/05/22 01:14:34;;;;;;;;;;;12.50;99.90;;;;;;5082280;28;19943;-82
2021/05/22 01:17:01;;;;;;;;;;;12.40;99.90;;;;;;5076696;28;20746;-82
2021/05/22 01:19:33;;;;;;;;;;;12.40;99.90;;;;;;5069574;28;20387;-82
2021/05/22 01:22:00;;;;;;;;;;;12.40;99.90;;;;;;5068519;28;19909;-81
2021/05/22 01:24:26;;;;;;;;;;;12.40;99.90;;;;;;5069875;28;19935;-81
2021/05/22 01:26:52;;;;;;;;;;;12.40;99.90;;;;;;5062246;28;20407;-81
2021/05/22 01:29:18;;;;;;;;;;;12.40;99.90;;;;;;5049736;28;19909;-81
2021/05/22 01:31:44;;;;;;;;;;;12.40;99.90;;;;;;5084511;28;20484;-81
2021/05/22 01:34:09;;;;;;;;;;;12.40;99.90;;;;;;5050451;28;19916;-81
2021/05/22 01:36:35;;;;;;;;;;;12.40;99.90;;;;;;5069015;28;19912;-81
2021/05/22 01:39:01;;;;;;;;;;;12.40;99.90;;;;;;5089695;28;19961;-81
2021/05/22 01:41:26;;;;;;;;;;;12.40;99.90;;;;;;5077342;28;19940;-81
2021/05/22 01:43:53;;;;;;;;;;;12.30;99.90;;;;;;5080177;28;20015;-81
2021/05/22 01:46:20;;;;;;;;;;;12.30;99.90;;;;;;5072707;28;19933;-81
2021/05/22 01:48:46;;;;;;;;;;;12.40;99.90;;;;;;5060102;28;20027;-81
2021/05/22 01:51:12;;;;;;;;;;;12.30;99.90;;;;;;5071243;28;20015;-81
2021/05/22 01:53:39;;;;;;;;;;;12.20;99.90;;;;;;5087964;28;19958;-81
2021/05/22 01:56:05;;;;;;;;;;;12.00;99.90;;;;;;5089345;28;20368;-81
2021/05/22 01:58:30;;;;;;;;;;;11.90;99.90;;;;;;5081266;28;19904;-81
2021/05/22 02:00:56;;;;;;;;;;;11.90;99.90;;;;;;5060714;28;19948;-81
2021/05/22 02:03:27;;;;;;;;;;;11.80;99.90;;;;;;5077649;28;19919;-81
2021/05/22 02:05:54;;;;;;;;;;;11.90;99.90;;;;;;5073143;28;20269;-81
2021/05/22 02:08:20;;;;;;;;;;;12.00;99.90;;;;;;5069036;28;20384;-81
2021/05/22 02:10:47;;;;;;;;;;;12.00;99.90;;;;;;5085202;28;19912;-81
2021/05/22 02:13:13;;;;;;;;;;;12.00;99.90;;;;;;5089171;28;20407;-81
2021/05/22 02:15:40;;;;;;;;;;;11.90;99.90;;;;;;5065665;28;19915;-81
2021/05/22 02:18:06;;;;;;;;;;;12.00;99.90;;;;;;5068762;28;19922;-81
2021/05/22 02:20:33;;;;;;;;;;;11.90;99.90;;;;;;5066305;28;19909;-81
2021/05/22 02:23:01;;;;;;;;;;;11.80;99.90;;;;;;5074473;28;19912;-82
2021/05/22 02:25:26;;;;;;;;;;;11.60;99.90;;;;;;5074003;28;20023;-83
2021/05/22 02:27:53;;;;;;;;;;;11.60;99.90;;;;;;5081634;28;20038;-82
2021/05/22 02:30:19;;;;;;;;;;;11.80;99.90;;;;;;5065248;28;19912;-81
2021/05/22 02:32:46;;;;;;;;;;;11.90;99.90;;;;;;5048620;28;19909;-82
2021/05/22 02:35:12;;;;;;;;;;;12.00;99.90;;;;;;5051430;28;20007;-82
2021/05/22 02:37:39;;;;;;;;;;;12.00;99.90;;;;;;5089053;28;19915;-82
2021/05/22 02:40:12;;;;;;;;;;;11.90;99.90;;;;;;5089101;28;19908;-81
2021/05/22 02:42:39;;;;;;;;;;;11.90;99.90;;;;;;5086720;28;19908;-81
2021/05/22 02:45:05;;;;;;;;;;;11.90;99.90;;;;;;5084818;28;19915;-81
2021/05/22 02:47:31;;;;;;;;;;;11.90;99.90;;;;;;5076398;28;19916;-81
2021/05/22 02:50:16;;;;;;;;;;;12.00;99.90;;;;;;5054567;28;19916;-82
2021/05/22 02:52:42;;;;;;;;;;;12.10;99.90;;;;;;5046887;28;20446;-82
2021/05/22 02:55:09;;;;;;;;;;;12.10;99.90;;;;;;5069826;28;20003;-82
2021/05/22 02:57:35;;;;;;;;;;;12.00;99.90;;;;;;5069336;28;20294;-82
2021/05/22 03:00:02;;;;;;;;;;;12.00;99.90;;;;;;5078997;28;20470;-82
2021/05/22 03:02:29;;;;;;;;;;;12.00;99.90;;;;;;5087394;28;19911;-81
2021/05/22 03:04:55;;;;;;;;;;;11.90;99.90;;;;;;5093118;28;19955;-81
2021/05/22 03:07:21;;;;;;;;;;;11.90;99.90;;;;;;5091344;28;19955;-82
2021/05/22 03:09:46;;;;;;;;;;;11.80;99.90;;;;;;5076028;28;19964;-81
2021/05/22 03:12:15;;;;;;;;;;;11.80;99.90;;;;;;5087588;28;20003;-81
2021/05/22 03:14:40;;;;;;;;;;;11.80;99.90;;;;;;5084253;28;19912;-81
2021/05/22 03:17:06;;;;;;;;;;;11.70;99.90;;;;;;5053764;28;19920;-81
2021/05/22 03:19:31;;;;;;;;;;;11.60;99.90;;;;;;5087727;28;19922;-81
2021/05/22 03:21:57;;;;;;;;;;;11.60;99.90;;;;;;5072301;28;19933;-81
2021/05/22 03:24:22;;;;;;;;;;;11.70;99.90;;;;;;5052392;28;19913;-81
2021/05/22 03:26:48;;;;;;;;;;;11.70;99.90;;;;;;5052242;28;20292;-81
2021/05/22 03:29:14;;;;;;;;;;;11.80;99.90;;;;;;5059675;28;19994;-81
2021/05/22 03:31:39;;;;;;;;;;;11.90;99.90;;;;;;5091925;28;20329;-81
2021/05/22 03:34:05;;;;;;;;;;;11.80;99.90;;;;;;5072421;28;19904;-81
2021/05/22 03:36:31;;;;;;;;;;;11.90;99.90;;;;;;5072350;28;19908;-81
2021/05/22 03:38:56;;;;;;;;;;;11.90;99.90;;;;;;5071069;28;19908;-81
2021/05/22 03:41:22;;;;;;;;;;;11.90;99.90;;;;;;5076982;28;19912;-82
2021/05/22 03:43:47;;;;;;;;;;;11.80;99.90;;;;;;5090670;28;20003;-81
2021/05/22 03:46:13;;;;;;;;;;;11.50;99.90;;;;;;5087838;28;19923;-81
2021/05/22 03:48:38;;;;;;;;;;;11.40;99.90;;;;;;5072049;28;19970;-81
2021/05/22 03:51:04;;;;;;;;;;;11.30;99.90;;;;;;5070305;28;19999;-83
2021/05/22 03:53:30;;;;;;;;;;;11.30;99.90;;;;;;5085000;28;19904;-81
2021/05/22 03:55:57;;;;;;;;;;;11.40;99.90;;;;;;5064547;28;19915;-82
2021/05/22 03:58:23;;;;;;;;;;;11.40;99.90;;;;;;5083538;28;20257;-81
2021/05/22 04:00:48;;;;;;;;;;;11.50;99.90;;;;;;5084991;28;19947;-82
2021/05/22 04:03:14;;;;;;;;;;;11.50;99.90;;;;;;5070075;28;20265;-82
2021/05/22 04:05:40;;;;;;;;;;;11.50;99.90;;;;;;5075114;28;19915;-82
2021/05/22 04:08:05;;;;;;;;;;;11.60;99.90;;;;;;5091508;28;20667;-82
2021/05/22 04:10:31;;;;;;;;;;;11.60;99.90;;;;;;5084373;28;20445;-82
2021/05/22 04:12:57;;;;;;;;;;;11.60;99.90;;;;;;5071442;28;19919;-82
2021/05/22 04:15:22;;;;;;;;;;;11.60;99.90;;;;;;5073051;28;19908;-82
2021/05/22 04:17:48;;;;;;;;;;;11.60;99.90;;;;;;5087941;28;19998;-83
2021/05/22 04:20:14;;;;;;;;;;;11.70;99.90;;;;;;5070521;28;19904;-82
2021/05/22 04:22:39;;;;;;;;;;;11.70;99.90;;;;;;5081488;28;19915;-82
2021/05/22 04:25:05;;;;;;;;;;;11.70;99.90;;;;;;5089721;28;20565;-82
2021/05/22 04:27:31;;;;;;;;;;;11.80;99.90;;;;;;5088645;28;19952;-82
2021/05/22 04:29:56;;;;;;;;;;;11.80;99.90;;;;;;5070165;28;19919;-82
2021/05/22 04:32:22;;;;;;;;;;;11.80;99.90;;;;;;5065761;28;19938;-82
2021/05/22 04:34:47;;;;;;;;;;;11.80;99.90;;;;;;5075743;28;19928;-82
2021/05/22 04:37:13;;;;;;;;;;;11.80;99.90;;;;;;5071027;28;20354;-81
2021/05/22 04:39:39;;;;;;;;;;;11.80;99.90;;;;;;5076222;28;20011;-82
2021/05/22 04:42:13;;;;;;;;;;;11.80;99.90;;;;;;5074076;28;19915;-83
2021/05/22 04:44:39;;;;;;;;;;;11.80;99.90;;;;;;5079859;28;19930;-83
2021/05/22 04:47:04;;;;;;;;;;;11.80;99.90;;;;;;5082481;28;20431;-84
2021/05/22 04:49:30;;;;;;;;;;;11.80;99.90;;;;;;5070644;28;19909;-84
2021/05/22 04:51:56;;;;;;;;;;;11.80;99.90;;;;;;5070690;28;20404;-83
2021/05/22 04:54:22;;;;;;;;;;;11.70;99.90;;;;;;5070624;28;19954;-83
2021/05/22 04:56:47;;;;;;;;;;;11.80;99.90;;;;;;5070365;28;19916;-84
2021/05/22 04:59:13;;;;;;;;;;;11.70;99.90;;;;;;5069633;28;20199;-85
2021/05/22 05:01:40;;;;;;;;;;;11.70;99.90;;;;;;5081161;28;19912;-83
2021/05/22 05:04:07;;;;;;;;;;;11.70;99.90;;;;;;5086025;28;20011;-84
2021/05/22 05:06:36;;;;;;;;;;;11.80;99.90;;;;;;5070337;28;20285;-84
2021/05/22 05:09:04;;;;;;;;;;;11.70;99.90;;;;;;5068763;28;19959;-85
2021/05/22 05:11:31;;;;;;;;;;;11.80;99.90;;;;;;5069863;28;19948;-83
2021/05/22 05:13:57;;;;;;;;;;;11.90;99.90;;;;;;5069810;28;20382;-83
2021/05/22 05:16:23;;;;;;;;;;;12.10;99.90;;;;;;5068494;28;19908;-84
2021/05/22 05:18:49;;;;;;;;;;;12.10;99.90;;;;;;5069986;28;19920;-84
2021/05/22 05:21:15;;;;;;;;;;;12.20;99.90;;;;;;5077173;28;19945;-84
2021/05/22 05:23:40;;;;;;;;;;;12.40;99.90;;;;;;5074036;28;19915;-84
2021/05/22 05:26:06;;;;;;;;;;;12.40;99.90;;;;;;5083582;28;20739;-84
2021/05/22 05:28:32;;;;;;;;;;;12.50;99.90;;;;;;5077278;28;19993;-83
2021/05/22 05:30:58;;;;;;;;;;;12.50;99.90;;;;;;5070546;28;19919;-84
2021/05/22 05:33:24;;;;;;;;;;;12.70;99.90;;;;;;5068891;28;19908;-85
2021/05/22 05:35:49;;;;;;;;;;;12.30;99.90;;;;;;5071182;28;19965;-84
2021/05/22 05:38:18;;;;;;;;;;;12.50;99.90;;;;;;5068267;28;19912;-84
2021/05/22 05:40:45;;;;;;;;;;;12.40;99.90;;;;;;5063090;28;20675;-84
2021/05/22 05:43:11;;;;;;;;;;;12.60;99.90;;;;;;5075708;28;19912;-83
2021/05/22 05:45:38;;;;;;;;;;;12.70;99.90;;;;;;5079241;28;19959;-86
2021/05/22 05:48:05;;;;;;;;;;;12.60;99.90;;;;;;5079119;28;20022;-83
2021/05/22 05:50:31;;;;;;;;;;;12.80;99.90;;;;;;5084002;28;19959;-84
2021/05/22 05:52:56;;;;;;;;;;;13.50;99.90;;;;;;5076664;28;19912;-85
2021/05/22 05:55:22;;;;;;;;;;;14.20;99.90;;;;;;5067173;28;20034;-84
2021/05/22 05:57:48;;;;;;;;;;;14.50;99.90;;;;;;5069848;28;19918;-84
2021/05/22 06:00:14;;;;;;;;;;;14.80;99.90;;;;;;5080518;28;19915;-84
2021/05/22 06:02:40;;;;;;;;;;;14.30;99.90;;;;;;5076998;28;19916;-83
2021/05/22 06:05:06;;;;;;;;;;;13.80;99.90;;;;;;5072463;28;19912;-83
2021/05/22 06:07:31;;;;;;;;;;;13.90;99.90;;;;;;5063325;28;19912;-83
2021/05/22 06:09:57;;;;;;;;;;;13.30;99.90;;;;;;5084809;28;20311;-84
2021/05/22 06:12:23;;;;;;;;;;;13.30;99.90;;;;;;5073141;28;19916;-83
2021/05/22 06:14:53;;;;;;;;;;;13.30;99.90;;;;;;5077921;28;19912;-82
2021/05/22 06:17:18;;;;;;;;;;;13.20;99.90;;;;;;5078034;28;19924;-83
2021/05/22 06:19:44;;;;;;;;;;;13.30;99.90;;;;;;5071794;28;20669;-82
2021/05/22 06:22:10;;;;;;;;;;;13.50;99.90;;;;;;5068745;28;19912;-83
2021/05/22 06:24:35;;;;;;;;;;;13.70;99.90;;;;;;5067499;28;20626;-82
2021/05/22 06:27:01;;;;;;;;;;;13.80;99.90;;;;;;5068925;28;20466;-83
2021/05/22 06:29:26;;;;;;;;;;;13.90;99.90;;;;;;5063737;28;19966;-84
2021/05/22 06:31:52;;;;;;;;;;;14.30;99.90;;;;;;5064994;28;19922;-83
2021/05/22 06:34:20;;;;;;;;;;;14.90;99.90;;;;;;5066688;28;19913;-83
2021/05/22 06:36:45;;;;;;;;;;;14.80;99.90;;;;;;5062273;28;19961;-82
2021/05/22 06:39:11;;;;;;;;;;;14.90;99.90;;;;;;5077691;28;19904;-83
2021/05/22 06:41:37;;;;;;;;;;;14.90;99.90;;;;;;5074553;28;19912;-82
2021/05/22 06:44:05;;;;;;;;;;;14.30;99.90;;;;;;5067634;28;19908;-82
2021/05/22 06:48:59;;;;;;;;;;;14.20;99.90;;;;;;5068110;28;20355;-85
2021/05/22 06:51:25;;;;;;;;;;;14.90;99.90;;;;;;5084614;28;19943;-82
2021/05/22 06:53:50;;;;;;;;;;;15.20;99.90;;;;;;5074249;28;19908;-82
2021/05/22 06:56:16;;;;;;;;;;;15.10;99.90;;;;;;5069722;28;19908;-83
2021/05/22 06:58:41;;;;;;;;;;;15.60;99.90;;;;;;5071429;28;19900;-82
2021/05/22 07:01:07;;;;;;;;;;;16.10;99.90;;;;;;5074876;28;19908;-82
2021/05/22 07:03:34;;;;;;;;;;;17.90;99.90;;;;;;5072023;28;19969;-83
2021/05/22 07:06:01;;;;;;;;;;;17.60;99.90;;;;;;5052188;28;19917;-82
2021/05/22 07:08:27;;;;;;;;;;;17.80;99.90;;;;;;5060786;28;20036;-82
2021/05/22 07:10:55;;;;;;;;;;;16.70;99.90;;;;;;5064987;28;20431;-81
2021/05/22 07:13:21;;;;;;;;;;;15.40;99.90;;;;;;5067963;28;19908;-82
2021/05/22 07:15:46;;;;;;;;;;;15.30;99.90;;;;;;5077380;28;20346;-82
2021/05/22 07:18:12;;;;;;;;;;;15.00;99.90;;;;;;5058716;28;20367;-83
2021/05/22 07:20:38;;;;;;;;;;;14.90;99.90;;;;;;5062650;28;20026;-82
2021/05/22 07:23:04;;;;;;;;;;;15.00;99.90;;;;;;5074922;28;19920;-82
2021/05/22 07:25:30;;;;;;;;;;;15.00;99.90;;;;;;5067060;28;20328;-83
2021/05/22 07:27:56;;;;;;;;;;;14.90;99.90;;;;;;5069269;28;19927;-83
2021/05/22 07:30:22;;;;;;;;;;;14.20;99.90;;;;;;5068166;28;19947;-83
2021/05/22 07:32:48;;;;;;;;;;;15.00;99.90;;;;;;5059493;28;19913;-82
2021/05/22 07:35:14;;;;;;;;;;;15.20;99.90;;;;;;5076389;28;20402;-82
2021/05/22 07:37:40;;;;;;;;;;;14.90;99.90;;;;;;5090573;28;20003;-82
2021/05/22 07:40:06;;;;;;;;;;;14.50;99.90;;;;;;5090467;28;19908;-81
2021/05/22 07:42:32;;;;;;;;;;;14.50;99.90;;;;;;5091878;28;19908;-82
2021/05/22 07:44:58;;;;;;;;;;;14.80;99.90;;;;;;5091816;28;19954;-82
2021/05/22 07:47:24;;;;;;;;;;;14.90;99.90;;;;;;5090409;28;20330;-82
2021/05/22 07:49:52;;;;;;;;;;;15.00;99.90;;;;;;5091781;28;19944;-82
2021/05/22 07:52:18;;;;;;;;;;;14.50;99.90;;;;;;5091766;28;19908;-82
2021/05/22 07:54:44;;;;;;;;;;;14.40;99.90;;;;;;5090998;28;19962;-83
2021/05/22 07:57:10;;;;;;;;;;;14.50;99.90;;;;;;5089250;28;19951;-82
2021/05/22 07:59:36;;;;;;;;;;;14.40;99.90;;;;;;5091093;28;19952;-82
2021/05/22 08:02:03;;;;;;;;;;;14.10;99.90;;;;;;5091140;28;19911;-82
2021/05/22 08:04:28;;;;;;;;;;;14.70;99.90;;;;;;5091606;28;19914;-81
2021/05/22 08:06:54;;;;;;;;;;;15.90;99.90;;;;;;5089872;28;19908;-82
2021/05/22 08:09:20;;;;;;;;;;;15.70;99.90;;;;;;5091923;28;20375;-82
2021/05/22 08:11:47;;;;;;;;;;;16.60;99.90;;;;;;5091949;28;20401;-82
2021/05/22 08:14:13;;;;;;;;;;;16.80;99.90;;;;;;5091518;28;19914;-82
2021/05/22 08:16:38;;;;;;;;;;;17.40;99.90;;;;;;5091456;28;19994;-82
2021/05/22 08:19:05;;;;;;;;;;;18.70;99.90;;;;;;5090073;28;19912;-83
2021/05/22 08:21:31;;;;;;;;;;;17.60;99.90;;;;;;5091324;28;19936;-82
2021/05/22 08:23:56;;;;;;;;;;;17.20;99.90;;;;;;5091622;28;20371;-82
2021/05/22 08:26:23;;;;;;;;;;;17.20;99.90;;;;;;5091499;28;19923;-82
2021/05/22 08:28:49;;;;;;;;;;;15.30;99.90;;;;;;5078001;28;20390;-82
2021/05/22 08:31:15;;;;;;;;;;;16.30;99.90;;;;;;5071049;28;19991;-83
2021/05/22 08:33:41;;;;;;;;;;;16.10;99.90;;;;;;5055165;28;19905;-82
2021/05/22 08:36:07;;;;;;;;;;;15.60;99.90;;;;;;5049915;28;19931;-82
2021/05/22 08:38:33;;;;;;;;;;;15.70;99.90;;;;;;5050978;28;19909;-83
2021/05/22 08:41:02;;;;;;;;;;;15.80;99.90;;;;;;5051054;28;19908;-82
2021/05/22 08:43:27;;;;;;;;;;;16.20;99.90;;;;;;5050807;28;19919;-84
2021/05/22 08:45:53;;;;;;;;;;;15.90;99.90;;;;;;5049138;28;19905;-83
2021/05/22 08:48:19;;;;;;;;;;;16.00;99.90;;;;;;5049498;28;19967;-82
2021/05/22 08:50:45;;;;;;;;;;;16.70;1.00;;;;;;5051109;28;19962;-82
2021/05/22 08:53:11;;;;;;;;;;;15.90;1.00;;;;;;5050723;28;19908;-82
2021/05/22 08:55:36;;;;;;;;;;;16.40;99.90;;;;;;5050835;28;19970;-82
2021/05/22 08:58:02;;;;;;;;;;;19.00;99.90;;;;;;5050992;28;19909;-82
2021/05/22 09:00:29;;;;;;;;;;;20.20;99.90;;;;;;5050953;28;20395;-82
2021/05/22 09:02:55;;;;;;;;;;;19.80;99.90;;;;;;5050703;28;19978;-83
2021/05/22 09:05:22;;;;;;;;;;;18.50;99.90;;;;;;5050857;28;20552;-82
2021/05/22 09:07:49;;;;;;;;;;;18.40;99.90;;;;;;5061269;28;20035;-82
2021/05/22 09:10:16;;;;;;;;;;;17.60;99.90;;;;;;5090980;28;19974;-83
2021/05/22 09:12:43;;;;;;;;;;;18.60;99.90;;;;;;5090510;28;19961;-82
2021/05/22 09:15:17;;;;;;;;;;;16.30;99.90;;;;;;5090894;28;19908;-83
2021/05/22 09:17:55;;;;;;;;;;;16.30;99.90;;;;;;5090465;28;19915;-82
2021/05/22 09:20:22;;;;;;;;;;;17.20;99.90;;;;;;5090724;28;19998;-83
2021/05/22 09:22:55;;;;;;;;;;;16.10;99.90;;;;;;5090401;28;19915;-83
2021/05/22 09:25:21;;;;;;;;;;;15.60;99.90;;;;;;5090659;28;19911;-83
2021/05/22 09:27:46;;;;;;;;;;;15.90;99.90;;;;;;5089012;28;19990;-83
2021/05/22 09:30:13;;;;;;;;;;;15.40;99.90;;;;;;5090666;28;20331;-83
2021/05/22 09:32:39;;;;;;;;;;;15.60;99.90;;;;;;5082855;28;19959;-83
2021/05/22 09:35:05;;;;;;;;;;;15.80;99.90;;;;;;5070161;28;19947;-83
2021/05/22 09:37:51;;;;;;;;;;;16.00;99.90;;;;;;5070235;28;19962;-82
2021/05/22 09:40:22;;;;;;;;;;;15.60;99.90;;;;;;5070154;28;19908;-83
2021/05/22 09:42:48;;;;;;;;;;;15.50;99.90;;;;;;5068250;28;19908;-83
2021/05/22 09:45:24;;;;;;;;;;;15.30;99.90;;;;;;5070314;28;19904;-82
2021/05/22 09:47:50;;;;;;;;;;;15.00;99.90;;;;;;5069764;28;19916;-83
2021/05/22 09:50:32;;;;;;;;;;;15.50;99.90;;;;;;5070035;28;20390;-82
2021/05/22 09:52:59;;;;;;;;;;;16.50;99.90;;;;;;5069695;28;19908;-83
2021/05/22 09:55:24;;;;;;;;;;;22.10;99.90;;;;;;5069819;28;20004;-83
2021/05/22 09:57:51;;;;;;;;;;;22.20;99.90;;;;;;5069436;28;19995;-83
2021/05/22 10:00:21;;;;;;;;;;;20.70;99.90;;;;;;5069847;28;19979;-83
2021/05/22 10:02:49;;;;;;;;;;;19.50;99.90;;;;;;5069708;28;19987;-83
2021/05/22 10:05:16;;;;;;;;;;;20.00;99.90;;;;;;5068375;28;20276;-83
2021/05/22 10:07:41;;;;;;;;;;;18.00;99.90;;;;;;5069668;28;20368;-83
2021/05/22 10:10:07;;;;;;;;;;;17.70;99.90;;;;;;5069316;28;19908;-82
2021/05/22 10:12:34;;;;;;;;;;;17.40;99.90;;;;;;5069574;28;19926;-83
2021/05/22 10:14:59;;;;;;;;;;;17.20;99.90;;;;;;5067966;28;19904;-82
2021/05/22 10:17:25;;;;;;;;;;;17.50;99.90;;;;;;5068806;28;19927;-82
2021/05/22 10:19:51;;;;;;;;;;;15.70;99.90;;;;;;5069568;28;19908;-82
2021/05/22 10:22:17;;;;;;;;;;;15.80;99.90;;;;;;5069138;28;19962;-82
2021/05/22 10:24:43;;;;;;;;;;;17.30;99.90;;;;;;5069471;28;19946;-82
2021/05/22 10:27:10;;;;;;;;;;;19.00;99.90;;;;;;5069287;28;20322;-83
2021/05/22 10:29:35;;;;;;;;;;;19.50;99.90;;;;;;5069244;28;19908;-83
2021/05/22 10:32:02;;;;;;;;;;;24.20;99.90;;;;;;5069188;28;19911;-83
2021/05/22 10:34:34;;;;;;;;;;;23.30;99.90;;;;;;5067966;28;19927;-82
2021/05/22 10:37:00;;;;;;;;;;;20.50;99.90;;;;;;5069327;28;19951;-83
2021/05/22 10:39:44;;;;;;;;;;;18.80;99.90;;;;;;5069213;28;19944;-83
2021/05/22 10:42:30;;;;;;;;;;;18.20;99.90;;;;;;5069311;28;19914;-83
2021/05/22 10:44:56;;;;;;;;;;;17.90;99.90;;;;;;5067773;28;19904;-83
2021/05/22 10:47:26;;;;;;;;;;;18.90;99.90;;;;;;5069173;28;19912;-83
2021/05/22 10:49:54;;;;;;;;;;;20.60;99.90;;;;;;5069394;28;19905;-83
2021/05/22 10:52:21;;;;;;;;;;;18.80;99.90;;;;;;5069085;28;20660;-83
2021/05/22 10:55:05;;;;;;;;;;;18.10;99.90;;;;;;5069352;28;19955;-83
2021/05/22 10:57:34;;;;;;;;;;;16.80;99.90;;;;;;5068617;28;19930;-83
2021/05/22 11:00:19;;;;;;;;;;;16.30;99.90;;;;;;5067911;28;20045;-83
2021/05/22 11:02:51;;;;;;;;;;;16.10;99.90;;;;;;5069024;28;19909;-83
2021/05/22 11:05:23;;;;;;;;;;;15.90;99.90;;;;;;5069093;28;19908;-82
2021/05/22 11:08:09;;;;;;;;;;;15.40;99.90;;;;;;5067519;28;20008;-83
2021/05/22 11:10:35;;;;;;;;;;;15.20;99.90;;;;;;5070404;28;20338;-82
2021/05/22 11:13:01;;;;;;;;;;;15.60;99.90;;;;;;5071562;28;20508;-82
2021/05/22 11:15:40;;;;;;;;;;;17.20;99.90;;;;;;5072628;28;19904;-83
2021/05/22 11:18:07;;;;;;;;;;;19.00;99.90;;;;;;5072611;28;19931;-82
2021/05/22 11:20:34;;;;;;;;;;;21.40;99.90;;;;;;5072764;28;19909;-83
2021/05/22 11:23:02;;;;;;;;;;;21.60;99.90;;;;;;5072750;28;19954;-83
2021/05/22 11:25:47;;;;;;;;;;;24.90;99.90;;;;;;5072703;28;20755;-84
2021/05/22 11:28:18;;;;;;;;;;;21.30;99.90;;;;;;5070980;28;19939;-82
2021/05/22 11:30:45;;;;;;;;;;;21.50;99.90;;;;;;5072084;28;19908;-82
2021/05/22 11:33:20;;;;;;;;;;;19.60;99.90;;;;;;5072495;28;19904;-82
2021/05/22 11:35:49;;;;;;;;;;;19.60;99.90;;;;;;5070765;28;20004;-82
2021/05/22 11:38:17;;;;;;;;;;;18.60;99.90;;;;;;5072337;28;19914;-82
2021/05/22 11:40:43;;;;;;;;;;;18.10;99.90;;;;;;5072042;28;19908;-82
2021/05/22 11:43:12;;;;;;;;;;;17.60;99.90;;;;;;5070904;28;19915;-82
2021/05/22 11:45:38;;;;;;;;;;;17.10;99.90;;;;;;5071977;28;19915;-82
2021/05/22 11:48:20;;;;;;;;;;;15.50;99.90;;;;;;5070677;28;19912;-82
2021/05/22 11:50:46;;;;;;;;;;;15.40;99.90;;;;;;5070418;28;19908;-82
2021/05/22 11:53:12;;;;;;;;;;;16.00;99.90;;;;;;5072058;28;20058;-82
2021/05/22 11:55:37;;;;;;;;;;;14.90;99.90;;;;;;5072167;28;19978;-82
2021/05/22 11:58:04;;;;;;;;;;;13.00;99.90;;;;;;5072069;28;19912;-82
2021/05/22 12:00:29;;;;;;;;;;;12.60;99.90;;;;;;5071065;28;20334;-82
2021/05/22 12:02:55;;;;;;;;;;;12.50;99.90;;;;;;5071619;28;19908;-82
2021/05/22 12:05:20;;;;;;;;;;;11.70;99.90;;;;;;5072399;28;19950;-82
2021/05/22 12:07:50;;;;;;;;;;;11.60;1.00;;;;;;5071997;28;19908;-82
2021/05/22 12:10:17;;;;;;;;;;;11.50;1.00;;;;;;5072017;28;19905;-82
2021/05/22 12:12:42;;;;;;;;;;;12.50;1.00;;;;;;5071945;28;19904;-82
2021/05/22 12:15:28;;;;;;;;;;;13.00;99.90;;;;;;5071878;28;19908;-83
2021/05/22 12:17:59;;;;;;;;;;;12.80;99.90;;;;;;5070068;28;19966;-82
2021/05/22 12:20:26;;;;;;;;;;;13.30;99.90;;;;;;5071317;28;20413;-82
2021/05/22 12:22:52;;;;;;;;;;;12.90;99.90;;;;;;5071757;28;19904;-82
2021/05/22 12:25:18;;;;;;;;;;;13.40;99.90;;;;;;5071736;28;19912;-82
2021/05/22 12:27:44;;;;;;;;;;;14.00;99.90;;;;;;5071581;28;19917;-82
2021/05/22 12:30:10;;;;;;;;;;;14.80;99.90;;;;;;5071264;28;19930;-82
2021/05/22 12:32:36;;;;;;;;;;;14.40;99.90;;;;;;5071231;28;19908;-82
2021/05/22 12:35:03;;;;;;;;;;;14.60;99.90;;;;;;5071144;28;19916;-83
2021/05/22 12:37:29;;;;;;;;;;;15.00;99.90;;;;;;5071529;28;19911;-82
2021/05/22 12:40:04;;;;;;;;;;;14.90;99.90;;;;;;5071401;28;19908;-82
2021/05/22 12:42:32;;;;;;;;;;;14.80;99.90;;;;;;5070716;28;19915;-83
2021/05/22 12:45:18;;;;;;;;;;;15.10;99.90;;;;;;5071341;28;19995;-83
2021/05/22 12:47:47;;;;;;;;;;;15.50;99.90;;;;;;5069466;28;19912;-83
2021/05/22 12:50:24;;;;;;;;;;;15.20;99.90;;;;;;5071243;28;19931;-82
2021/05/22 12:52:59;;;;;;;;;;;15.30;99.90;;;;;;5071086;28;20008;-82
2021/05/22 12:55:32;;;;;;;;;;;14.70;99.90;;;;;;5071188;28;19914;-83
2021/05/22 12:57:59;;;;;;;;;;;15.10;99.90;;;;;;5071105;28;20384;-83
2021/05/22 13:00:31;;;;;;;;;;;15.70;99.90;;;;;;5070678;28;19958;-83
2021/05/22 13:02:57;;;;;;;;;;;15.90;99.90;;;;;;5070960;28;19958;-82
2021/05/22 13:05:25;;;;;;;;;;;15.90;99.90;;;;;;5070559;28;19908;-82
2021/05/22 13:07:56;;;;;;;;;;;15.70;99.90;;;;;;5069378;28;19916;-82
2021/05/22 13:10:22;;;;;;;;;;;16.70;99.90;;;;;;5070624;28;19917;-82
2021/05/22 13:13:04;;;;;;;;;;;16.60;99.90;;;;;;5069478;28;19909;-82
2021/05/22 13:15:34;;;;;;;;;;;16.90;99.90;;;;;;5069220;28;19954;-82
2021/05/22 13:18:02;;;;;;;;;;;16.40;99.90;;;;;;5070463;28;20350;-82
2021/05/22 13:20:32;;;;;;;;;;;15.80;99.90;;;;;;5070695;28;19911;-82
2021/05/22 13:23:07;;;;;;;;;;;14.90;99.90;;;;;;5070505;28;19927;-82
2021/05/22 13:25:33;;;;;;;;;;;14.90;99.90;;;;;;5070107;28;19904;-82
2021/05/22 13:28:04;;;;;;;;;;;15.00;99.90;;;;;;5068865;28;19919;-82
2021/05/22 13:30:34;;;;;;;;;;;15.30;99.90;;;;;;5070482;28;19995;-82
2021/05/22 13:33:00;;;;;;;;;;;16.00;99.90;;;;;;5070213;28;19927;-82
2021/05/22 13:35:28;;;;;;;;;;;16.30;99.90;;;;;;5070301;28;19908;-82
2021/05/22 13:37:54;;;;;;;;;;;16.40;99.90;;;;;;5070245;28;19915;-82
2021/05/22 13:40:24;;;;;;;;;;;16.60;99.90;;;;;;5070432;28;19908;-82
2021/05/22 13:42:50;;;;;;;;;;;16.20;99.90;;;;;;5070050;28;19911;-82
2021/05/22 13:45:15;;;;;;;;;;;16.50;99.90;;;;;;5070377;28;19904;-82
2021/05/22 13:47:41;;;;;;;;;;;16.00;99.90;;;;;;5069831;28;19927;-82
2021/05/22 13:50:07;;;;;;;;;;;16.20;99.90;;;;;;5070350;28;19908;-82
2021/05/22 13:52:33;;;;;;;;;;;15.80;99.90;;;;;;5070179;28;19915;-82
2021/05/22 13:54:59;;;;;;;;;;;15.30;99.90;;;;;;5069996;28;19908;-82
2021/05/22 13:57:24;;;;;;;;;;;15.60;99.90;;;;;;5069992;28;19908;-82
2021/05/22 13:59:50;;;;;;;;;;;15.20;99.90;;;;;;5069941;28;19997;-83
2021/05/22 14:02:16;;;;;;;;;;;15.50;99.90;;;;;;5068668;28;20010;-82
2021/05/22 14:04:41;;;;;;;;;;;15.40;99.90;;;;;;5069733;28;20418;-82
2021/05/22 14:07:07;;;;;;;;;;;15.50;99.90;;;;;;5069910;28;19912;-82
2021/05/22 14:09:32;;;;;;;;;;;16.10;99.90;;;;;;5069448;28;19944;-82
2021/05/22 14:11:58;;;;;;;;;;;16.10;99.90;;;;;;5068113;28;19908;-82
2021/05/22 14:14:24;;;;;;;;;;;15.90;99.90;;;;;;5069601;28;19947;-82
2021/05/22 14:16:49;;;;;;;;;;;16.20;99.90;;;;;;5069198;28;20303;-82
2021/05/22 14:19:15;;;;;;;;;;;15.90;99.90;;;;;;5069410;28;20397;-82